sensor_id;sensor_type;location;lat;lon;timestamp;pressure;altitude;pressure_sealevel;temperature;humidity
12626;BME280;6378;42.684;23.372;2022-12-18T00:01:42;95856.84;;;7.54;100.00
12626;BME280;6378;42.684;23.372;2022-12-18T00:04:22;95850.16;;;7.43;100.00
12626;BME280;6378;42.684;23.372;2022-12-18T00:06:47;95871.91;;;7.42;100.00
12626;BME280;6378;42.684;23.372;2022-12-18T00:09:13;95866.84;;;7.40;100.00
12626;BME280;6378;42.684;23.372;2022-12-18T00:11:38;95854.19;;;7.32;100.00
12626;BME280;6378;42.684;23.372;2022-12-18T00:14:04;95866.28;;;7.29;100.00
12626;BME280;6378;42.684;23.372;2022-12-18T00:16:29;95867.88;;;7.30;100.00
12626;BME280;6378;42.684;23.372;2022-12-18T00:18:58;95853.75;;;7.16;100.00
12626;BME280;6378;42.684;23.372;2022-12-18T00:21:25;95874.81;;;7.31;100.00
12626;BME280;6378;42.684;23.372;2022-12-18T00:23:51;95881.56;;;7.29;100.00
12626;BME280;6378;42.684;23.372;2022-12-18T00:26:21;95888.50;;;7.30;100.00
12626;BME280;6378;42.684;23.372;2022-12-18T00:28:48;95885.75;;;7.21;100.00
12626;BME280;6378;42.684;23.372;2022-12-18T00:31:16;95892.47;;;7.32;100.00
12626;BME280;6378;42.684;23.372;2022-12-18T00:33:43;95885.09;;;7.16;100.00
12626;BME280;6378;42.684;23.372;2022-12-18T00:36:15;95899.94;;;7.22;100.00
12626;BME280;6378;42.684;23.372;2022-12-18T00:38:41;95895.84;;;7.02;100.00
12626;BME280;6378;42.684;23.372;2022-12-18T00:41:10;95877.44;;;6.87;100.00
12626;BME280;6378;42.684;23.372;2022-12-18T00:43:36;95903.25;;;7.05;100.00
12626;BME280;6378;42.684;23.372;2022-12-18T00:46:02;95900.22;;;6.98;100.00
12626;BME280;6378;42.684;23.372;2022-12-18T00:48:27;95859.91;;;6.81;100.00
12626;BME280;6378;42.684;23.372;2022-12-18T00:50:52;95906.38;;;6.99;100.00
12626;BME280;6378;42.684;23.372;2022-12-18T00:53:18;95899.13;;;6.85;100.00
12626;BME280;6378;42.684;23.372;2022-12-18T00:55:44;95893.59;;;6.82;100.00
12626;BME280;6378;42.684;23.372;2022-12-18T00:58:11;95903.97;;;6.97;100.00
12626;BME280;6378;42.684;23.372;2022-12-18T01:00:37;95908.47;;;6.88;100.00
12626;BME280;6378;42.684;23.372;2022-12-18T01:03:03;95902.88;;;6.84;100.00
12626;BME280;6378;42.684;23.372;2022-12-18T01:05:29;95910.72;;;6.81;100.00
12626;BME280;6378;42.684;23.372;2022-12-18T01:07:56;95903.31;;;6.78;100.00
12626;BME280;6378;42.684;23.372;2022-12-18T01:10:22;95914.28;;;6.90;100.00
12626;BME280;6378;42.684;23.372;2022-12-18T01:12:47;95923.22;;;6.85;100.00
12626;BME280;6378;42.684;23.372;2022-12-18T01:15:14;95929.09;;;6.74;100.00
12626;BME280;6378;42.684;23.372;2022-12-18T01:17:40;95931.66;;;6.65;100.00
12626;BME280;6378;42.684;23.372;2022-12-18T01:20:06;95923.53;;;6.57;100.00
12626;BME280;6378;42.684;23.372;2022-12-18T01:22:34;95925.91;;;6.58;100.00
12626;BME280;6378;42.684;23.372;2022-12-18T01:25:00;95927.38;;;6.50;100.00
12626;BME280;6378;42.684;23.372;2022-12-18T01:27:25;95927.19;;;6.61;100.00
12626;BME280;6378;42.684;23.372;2022-12-18T01:29:51;95909.28;;;6.47;100.00
12626;BME280;6378;42.684;23.372;2022-12-18T01:32:16;95923.81;;;6.55;100.00
12626;BME280;6378;42.684;23.372;2022-12-18T01:34:42;95911.06;;;6.38;100.00
12626;BME280;6378;42.684;23.372;2022-12-18T01:37:07;95922.75;;;6.42;100.00
12626;BME280;6378;42.684;23.372;2022-12-18T01:39:33;95942.06;;;6.39;100.00
12626;BME280;6378;42.684;23.372;2022-12-18T01:41:59;95935.91;;;6.39;100.00
12626;BME280;6378;42.684;23.372;2022-12-18T01:44:58;95936.91;;;6.29;100.00
12626;BME280;6378;42.684;23.372;2022-12-18T01:50:01;95954.22;;;6.18;100.00
12626;BME280;6378;42.684;23.372;2022-12-18T01:52:29;95955.59;;;6.16;100.00
12626;BME280;6378;42.684;23.372;2022-12-18T01:54:56;95947.88;;;6.14;100.00
12626;BME280;6378;42.684;23.372;2022-12-18T01:57:23;95951.34;;;6.15;100.00
12626;BME280;6378;42.684;23.372;2022-12-18T01:59:51;95950.03;;;6.12;100.00
12626;BME280;6378;42.684;23.372;2022-12-18T02:02:19;95946.09;;;6.09;100.00
12626;BME280;6378;42.684;23.372;2022-12-18T02:04:45;95953.78;;;6.11;100.00
12626;BME280;6378;42.684;23.372;2022-12-18T02:16:12;95964.25;;;5.94;100.00
12626;BME280;6378;42.684;23.372;2022-12-18T02:18:43;95972.84;;;5.91;100.00
12626;BME280;6378;42.684;23.372;2022-12-18T02:26:36;95978.97;;;5.91;100.00
12626;BME280;6378;42.684;23.372;2022-12-18T02:29:26;95986.13;;;5.77;100.00
12626;BME280;6378;42.684;23.372;2022-12-18T02:31:57;95996.44;;;5.84;100.00
12626;BME280;6378;42.684;23.372;2022-12-18T02:34:29;95989.59;;;5.78;100.00
12626;BME280;6378;42.684;23.372;2022-12-18T02:36:57;95982.00;;;5.85;100.00
12626;BME280;6378;42.684;23.372;2022-12-18T02:39:25;95969.88;;;5.74;100.00
12626;BME280;6378;42.684;23.372;2022-12-18T02:41:51;95975.38;;;5.63;100.00
12626;BME280;6378;42.684;23.372;2022-12-18T02:44:17;95986.34;;;5.62;100.00
12626;BME280;6378;42.684;23.372;2022-12-18T02:46:45;95975.69;;;5.43;100.00
12626;BME280;6378;42.684;23.372;2022-12-18T02:49:36;95995.22;;;5.57;100.00
12626;BME280;6378;42.684;23.372;2022-12-18T03:00:53;95999.63;;;5.48;100.00
12626;BME280;6378;42.684;23.372;2022-12-18T03:06:33;96005.44;;;5.37;100.00
12626;BME280;6378;42.684;23.372;2022-12-18T03:09:00;96018.78;;;5.37;100.00
12626;BME280;6378;42.684;23.372;2022-12-18T03:11:29;96021.13;;;5.38;100.00
12626;BME280;6378;42.684;23.372;2022-12-18T03:14:16;96025.13;;;5.41;100.00
12626;BME280;6378;42.684;23.372;2022-12-18T03:16:44;95991.69;;;5.24;100.00
12626;BME280;6378;42.684;23.372;2022-12-18T03:19:15;96026.84;;;5.50;100.00
12626;BME280;6378;42.684;23.372;2022-12-18T03:21:45;96018.25;;;5.53;100.00
12626;BME280;6378;42.684;23.372;2022-12-18T03:24:11;96022.25;;;5.56;100.00
12626;BME280;6378;42.684;23.372;2022-12-18T03:26:40;96028.00;;;5.44;100.00
12626;BME280;6378;42.684;23.372;2022-12-18T03:29:14;96015.50;;;5.40;100.00
12626;BME280;6378;42.684;23.372;2022-12-18T03:31:47;96005.19;;;5.33;100.00
12626;BME280;6378;42.684;23.372;2022-12-18T03:34:21;96036.38;;;5.56;100.00
12626;BME280;6378;42.684;23.372;2022-12-18T03:36:48;96036.31;;;5.61;100.00
12626;BME280;6378;42.684;23.372;2022-12-18T03:39:14;96020.44;;;5.51;100.00
12626;BME280;6378;42.684;23.372;2022-12-18T03:41:51;96033.56;;;5.66;100.00
12626;BME280;6378;42.684;23.372;2022-12-18T03:44:29;96047.63;;;5.72;100.00
12626;BME280;6378;42.684;23.372;2022-12-18T03:49:46;96047.56;;;5.58;100.00
12626;BME280;6378;42.684;23.372;2022-12-18T03:52:29;96053.75;;;5.54;100.00
12626;BME280;6378;42.684;23.372;2022-12-18T03:54:58;96045.41;;;5.42;100.00
12626;BME280;6378;42.684;23.372;2022-12-18T03:57:28;96063.16;;;5.51;100.00
12626;BME280;6378;42.684;23.372;2022-12-18T03:59:58;96034.13;;;5.26;100.00
12626;BME280;6378;42.684;23.372;2022-12-18T04:02:25;96061.63;;;5.45;100.00
12626;BME280;6378;42.684;23.372;2022-12-18T04:04:58;96068.84;;;5.45;100.00
12626;BME280;6378;42.684;23.372;2022-12-18T04:07:25;96055.78;;;5.43;100.00
12626;BME280;6378;42.684;23.372;2022-12-18T04:09:53;96054.13;;;5.47;100.00
12626;BME280;6378;42.684;23.372;2022-12-18T04:12:24;96025.69;;;5.38;100.00
12626;BME280;6378;42.684;23.372;2022-12-18T04:14:50;96055.22;;;5.46;100.00
12626;BME280;6378;42.684;23.372;2022-12-18T04:17:16;96058.50;;;5.38;100.00
12626;BME280;6378;42.684;23.372;2022-12-18T04:19:41;96083.13;;;5.54;100.00
12626;BME280;6378;42.684;23.372;2022-12-18T04:22:09;96091.44;;;5.52;100.00
12626;BME280;6378;42.684;23.372;2022-12-18T04:24:35;96091.28;;;5.62;100.00
12626;BME280;6378;42.684;23.372;2022-12-18T04:27:01;96099.38;;;5.57;100.00
12626;BME280;6378;42.684;23.372;2022-12-18T04:29:26;96077.66;;;5.45;100.00
12626;BME280;6378;42.684;23.372;2022-12-18T04:31:52;96097.28;;;5.54;100.00
12626;BME280;6378;42.684;23.372;2022-12-18T04:34:17;96093.72;;;5.40;100.00
12626;BME280;6378;42.684;23.372;2022-12-18T04:36:42;96098.00;;;5.41;100.00
12626;BME280;6378;42.684;23.372;2022-12-18T04:39:08;96099.13;;;5.35;100.00
12626;BME280;6378;42.684;23.372;2022-12-18T04:41:33;96103.63;;;5.40;100.00
12626;BME280;6378;42.684;23.372;2022-12-18T04:43:58;96099.72;;;5.32;100.00
12626;BME280;6378;42.684;23.372;2022-12-18T04:46:24;96118.41;;;5.32;100.00
12626;BME280;6378;42.684;23.372;2022-12-18T04:48:49;96118.94;;;5.29;100.00
12626;BME280;6378;42.684;23.372;2022-12-18T04:51:15;96108.28;;;5.29;100.00
12626;BME280;6378;42.684;23.372;2022-12-18T04:53:40;96116.59;;;5.28;100.00
12626;BME280;6378;42.684;23.372;2022-12-18T04:56:13;96124.88;;;5.26;100.00
12626;BME280;6378;42.684;23.372;2022-12-18T04:58:41;96123.75;;;5.32;100.00
12626;BME280;6378;42.684;23.372;2022-12-18T05:01:07;96135.56;;;5.26;100.00
12626;BME280;6378;42.684;23.372;2022-12-18T05:03:33;96125.94;;;5.25;100.00
12626;BME280;6378;42.684;23.372;2022-12-18T05:05:59;96122.16;;;5.31;100.00
12626;BME280;6378;42.684;23.372;2022-12-18T05:08:25;96122.75;;;5.23;100.00
12626;BME280;6378;42.684;23.372;2022-12-18T05:11:05;96124.41;;;5.19;100.00
12626;BME280;6378;42.684;23.372;2022-12-18T05:13:31;96139.94;;;5.17;100.00
12626;BME280;6378;42.684;23.372;2022-12-18T05:15:57;96147.34;;;5.20;100.00
12626;BME280;6378;42.684;23.372;2022-12-18T05:18:23;96149.22;;;5.19;100.00
12626;BME280;6378;42.684;23.372;2022-12-18T05:20:50;96154.06;;;5.17;100.00
12626;BME280;6378;42.684;23.372;2022-12-18T05:23:15;96137.59;;;5.10;100.00
12626;BME280;6378;42.684;23.372;2022-12-18T05:25:41;96164.38;;;5.24;100.00
12626;BME280;6378;42.684;23.372;2022-12-18T05:28:06;96160.44;;;5.21;100.00
12626;BME280;6378;42.684;23.372;2022-12-18T05:30:32;96159.63;;;5.21;100.00
12626;BME280;6378;42.684;23.372;2022-12-18T05:32:57;96170.63;;;5.14;100.00
12626;BME280;6378;42.684;23.372;2022-12-18T05:35:22;96162.34;;;5.16;100.00
12626;BME280;6378;42.684;23.372;2022-12-18T05:37:48;96178.88;;;5.18;100.00
12626;BME280;6378;42.684;23.372;2022-12-18T05:40:13;96155.06;;;4.98;100.00
12626;BME280;6378;42.684;23.372;2022-12-18T05:42:39;96186.91;;;5.18;100.00
12626;BME280;6378;42.684;23.372;2022-12-18T05:45:05;96187.44;;;5.15;100.00
12626;BME280;6378;42.684;23.372;2022-12-18T05:47:31;96188.81;;;5.12;100.00
12626;BME280;6378;42.684;23.372;2022-12-18T05:49:56;96150.81;;;4.97;100.00
12626;BME280;6378;42.684;23.372;2022-12-18T05:52:22;96181.00;;;4.92;100.00
12626;BME280;6378;42.684;23.372;2022-12-18T05:54:47;96187.63;;;4.95;100.00
12626;BME280;6378;42.684;23.372;2022-12-18T05:57:16;96187.09;;;4.98;100.00
12626;BME280;6378;42.684;23.372;2022-12-18T05:59:41;96193.75;;;4.95;100.00
12626;BME280;6378;42.684;23.372;2022-12-18T06:02:07;96202.88;;;4.89;100.00
12626;BME280;6378;42.684;23.372;2022-12-18T06:04:32;96189.84;;;4.88;100.00
12626;BME280;6378;42.684;23.372;2022-12-18T06:06:58;96188.25;;;4.87;100.00
12626;BME280;6378;42.684;23.372;2022-12-18T06:09:24;96197.84;;;4.88;100.00
12626;BME280;6378;42.684;23.372;2022-12-18T06:11:51;96205.28;;;4.91;100.00
12626;BME280;6378;42.684;23.372;2022-12-18T06:14:16;96204.25;;;4.87;100.00
12626;BME280;6378;42.684;23.372;2022-12-18T06:16:43;96210.66;;;4.86;100.00
12626;BME280;6378;42.684;23.372;2022-12-18T06:19:15;96223.94;;;4.91;100.00
12626;BME280;6378;42.684;23.372;2022-12-18T06:21:41;96198.56;;;4.64;100.00
12626;BME280;6378;42.684;23.372;2022-12-18T06:24:07;96218.47;;;4.77;100.00
12626;BME280;6378;42.684;23.372;2022-12-18T06:26:32;96210.44;;;4.82;100.00
12626;BME280;6378;42.684;23.372;2022-12-18T06:28:58;96229.13;;;4.77;100.00
12626;BME280;6378;42.684;23.372;2022-12-18T06:31:23;96213.94;;;4.77;100.00
12626;BME280;6378;42.684;23.372;2022-12-18T06:33:49;96228.56;;;4.80;100.00
12626;BME280;6378;42.684;23.372;2022-12-18T06:36:15;96196.25;;;4.53;100.00
12626;BME280;6378;42.684;23.372;2022-12-18T06:38:43;96241.91;;;4.80;100.00
12626;BME280;6378;42.684;23.372;2022-12-18T06:41:17;96236.88;;;4.78;100.00
12626;BME280;6378;42.684;23.372;2022-12-18T06:43:43;96251.25;;;4.83;100.00
12626;BME280;6378;42.684;23.372;2022-12-18T06:46:09;96255.69;;;4.92;100.00
12626;BME280;6378;42.684;23.372;2022-12-18T06:48:35;96252.59;;;5.09;100.00
12626;BME280;6378;42.684;23.372;2022-12-18T06:51:02;96252.09;;;5.07;100.00
12626;BME280;6378;42.684;23.372;2022-12-18T06:53:28;96249.97;;;5.04;100.00
12626;BME280;6378;42.684;23.372;2022-12-18T06:56:04;96245.22;;;5.01;100.00
12626;BME280;6378;42.684;23.372;2022-12-18T06:58:30;96248.91;;;5.05;100.00
12626;BME280;6378;42.684;23.372;2022-12-18T07:01:03;96258.31;;;4.97;100.00
12626;BME280;6378;42.684;23.372;2022-12-18T07:03:29;96240.44;;;4.98;100.00
12626;BME280;6378;42.684;23.372;2022-12-18T07:05:55;96256.75;;;4.91;100.00
12626;BME280;6378;42.684;23.372;2022-12-18T07:08:21;96262.25;;;5.05;100.00
12626;BME280;6378;42.684;23.372;2022-12-18T07:10:46;96256.41;;;5.03;100.00
12626;BME280;6378;42.684;23.372;2022-12-18T07:13:14;96261.66;;;5.42;100.00
12626;BME280;6378;42.684;23.372;2022-12-18T07:15:39;96268.06;;;5.12;100.00
12626;BME280;6378;42.684;23.372;2022-12-18T07:18:05;96267.03;;;5.08;100.00
12626;BME280;6378;42.684;23.372;2022-12-18T07:20:30;96255.16;;;4.90;100.00
12626;BME280;6378;42.684;23.372;2022-12-18T07:22:56;96263.16;;;4.90;100.00
12626;BME280;6378;42.684;23.372;2022-12-18T07:25:21;96273.84;;;4.90;100.00
12626;BME280;6378;42.684;23.372;2022-12-18T07:27:46;96256.38;;;4.74;100.00
12626;BME280;6378;42.684;23.372;2022-12-18T07:30:12;96272.84;;;4.81;100.00
12626;BME280;6378;42.684;23.372;2022-12-18T07:32:37;96273.34;;;4.88;100.00
12626;BME280;6378;42.684;23.372;2022-12-18T07:35:03;96288.75;;;4.96;100.00
12626;BME280;6378;42.684;23.372;2022-12-18T07:37:28;96276.28;;;4.87;100.00
12626;BME280;6378;42.684;23.372;2022-12-18T07:39:54;96281.66;;;4.82;100.00
12626;BME280;6378;42.684;23.372;2022-12-18T07:42:19;96292.50;;;4.90;100.00
12626;BME280;6378;42.684;23.372;2022-12-18T07:45:00;96288.84;;;4.81;100.00
12626;BME280;6378;42.684;23.372;2022-12-18T07:47:27;96263.91;;;4.62;100.00
12626;BME280;6378;42.684;23.372;2022-12-18T07:49:52;96295.50;;;4.84;100.00
12626;BME280;6378;42.684;23.372;2022-12-18T07:52:18;96294.13;;;4.91;100.00
12626;BME280;6378;42.684;23.372;2022-12-18T07:54:44;96304.63;;;4.77;100.00
12626;BME280;6378;42.684;23.372;2022-12-18T07:57:10;96299.75;;;4.85;100.00
12626;BME280;6378;42.684;23.372;2022-12-18T07:59:35;96307.69;;;4.95;100.00
12626;BME280;6378;42.684;23.372;2022-12-18T08:02:00;96313.56;;;4.97;100.00
12626;BME280;6378;42.684;23.372;2022-12-18T08:04:26;96315.44;;;4.91;100.00
12626;BME280;6378;42.684;23.372;2022-12-18T08:06:52;96318.41;;;4.90;100.00
12626;BME280;6378;42.684;23.372;2022-12-18T08:09:18;96352.81;;;4.91;100.00
12626;BME280;6378;42.684;23.372;2022-12-18T08:11:43;96313.41;;;4.78;100.00
12626;BME280;6378;42.684;23.372;2022-12-18T08:14:09;96336.03;;;4.86;100.00
12626;BME280;6378;42.684;23.372;2022-12-18T08:16:35;96338.66;;;4.91;100.00
12626;BME280;6378;42.684;23.372;2022-12-18T08:19:00;96346.41;;;4.92;100.00
12626;BME280;6378;42.684;23.372;2022-12-18T08:21:28;96352.56;;;4.88;100.00
12626;BME280;6378;42.684;23.372;2022-12-18T08:23:55;96344.00;;;4.91;100.00
12626;BME280;6378;42.684;23.372;2022-12-18T08:26:22;96351.44;;;4.94;100.00
12626;BME280;6378;42.684;23.372;2022-12-18T08:28:48;96354.69;;;4.86;100.00
12626;BME280;6378;42.684;23.372;2022-12-18T08:31:14;96353.59;;;4.92;100.00
12626;BME280;6378;42.684;23.372;2022-12-18T08:33:41;96362.69;;;4.91;100.00
12626;BME280;6378;42.684;23.372;2022-12-18T08:36:07;96348.91;;;4.78;100.00
12626;BME280;6378;42.684;23.372;2022-12-18T08:38:33;96360.84;;;4.86;100.00
12626;BME280;6378;42.684;23.372;2022-12-18T08:41:04;96359.97;;;4.96;100.00
12626;BME280;6378;42.684;23.372;2022-12-18T08:43:30;96358.38;;;4.95;100.00
12626;BME280;6378;42.684;23.372;2022-12-18T08:46:14;96357.31;;;4.96;100.00
12626;BME280;6378;42.684;23.372;2022-12-18T08:48:43;96364.50;;;4.95;100.00
12626;BME280;6378;42.684;23.372;2022-12-18T08:51:09;96366.84;;;5.07;100.00
12626;BME280;6378;42.684;23.372;2022-12-18T08:53:37;96368.94;;;5.10;100.00
12626;BME280;6378;42.684;23.372;2022-12-18T08:56:04;96355.69;;;5.00;100.00
12626;BME280;6378;42.684;23.372;2022-12-18T08:58:29;96356.16;;;5.07;100.00
12626;BME280;6378;42.684;23.372;2022-12-18T09:01:02;96337.66;;;4.82;100.00
12626;BME280;6378;42.684;23.372;2022-12-18T09:03:28;96328.59;;;4.83;100.00
12626;BME280;6378;42.684;23.372;2022-12-18T09:05:54;96358.03;;;5.06;100.00
12626;BME280;6378;42.684;23.372;2022-12-18T09:08:19;96358.31;;;5.05;100.00
12626;BME280;6378;42.684;23.372;2022-12-18T09:10:46;96357.78;;;5.08;100.00
12626;BME280;6378;42.684;23.372;2022-12-18T09:13:12;96358.53;;;5.08;100.00
12626;BME280;6378;42.684;23.372;2022-12-18T09:15:55;96348.38;;;5.15;100.00
12626;BME280;6378;42.684;23.372;2022-12-18T09:18:22;96355.03;;;5.18;100.00
12626;BME280;6378;42.684;23.372;2022-12-18T09:20:48;96352.59;;;5.21;100.00
12626;BME280;6378;42.684;23.372;2022-12-18T09:23:15;96351.06;;;5.10;100.00
12626;BME280;6378;42.684;23.372;2022-12-18T09:25:40;96355.63;;;5.05;100.00
12626;BME280;6378;42.684;23.372;2022-12-18T09:28:14;96347.13;;;5.03;100.00
12626;BME280;6378;42.684;23.372;2022-12-18T09:30:42;96336.75;;;4.96;100.00
12626;BME280;6378;42.684;23.372;2022-12-18T09:33:08;96347.28;;;5.16;100.00
12626;BME280;6378;42.684;23.372;2022-12-18T09:35:41;96344.91;;;5.15;100.00
12626;BME280;6378;42.684;23.372;2022-12-18T09:38:08;96353.91;;;5.24;100.00
12626;BME280;6378;42.684;23.372;2022-12-18T09:40:47;96356.34;;;5.20;100.00
12626;BME280;6378;42.684;23.372;2022-12-18T09:43:24;96352.59;;;5.21;100.00
12626;BME280;6378;42.684;23.372;2022-12-18T09:45:56;96358.75;;;5.22;100.00
12626;BME280;6378;42.684;23.372;2022-12-18T09:48:34;96360.28;;;5.28;100.00
12626;BME280;6378;42.684;23.372;2022-12-18T09:51:18;96346.88;;;5.33;100.00
12626;BME280;6378;42.684;23.372;2022-12-18T09:53:47;96337.88;;;5.24;100.00
12626;BME280;6378;42.684;23.372;2022-12-18T09:56:18;96351.50;;;5.28;100.00
12626;BME280;6378;42.684;23.372;2022-12-18T09:58:55;96355.69;;;5.34;100.00
12626;BME280;6378;42.684;23.372;2022-12-18T10:01:22;96354.28;;;5.46;100.00
12626;BME280;6378;42.684;23.372;2022-12-18T10:03:49;96345.50;;;5.41;100.00
12626;BME280;6378;42.684;23.372;2022-12-18T10:06:22;96357.16;;;5.50;100.00
12626;BME280;6378;42.684;23.372;2022-12-18T10:08:57;96356.09;;;5.51;100.00
12626;BME280;6378;42.684;23.372;2022-12-18T10:19:20;96350.00;;;5.74;100.00
12626;BME280;6378;42.684;23.372;2022-12-18T10:22:01;96348.75;;;5.66;100.00
12626;BME280;6378;42.684;23.372;2022-12-18T10:27:18;96342.56;;;5.71;100.00
12626;BME280;6378;42.684;23.372;2022-12-18T10:29:44;96357.09;;;5.89;100.00
12626;BME280;6378;42.684;23.372;2022-12-18T10:32:22;96357.00;;;5.99;100.00
12626;BME280;6378;42.684;23.372;2022-12-18T10:34:49;96358.13;;;6.17;100.00
12626;BME280;6378;42.684;23.372;2022-12-18T10:37:18;96353.94;;;6.11;100.00
12626;BME280;6378;42.684;23.372;2022-12-18T10:39:44;96344.03;;;6.11;100.00
12626;BME280;6378;42.684;23.372;2022-12-18T10:42:16;96351.59;;;6.04;100.00
12626;BME280;6378;42.684;23.372;2022-12-18T10:44:42;96346.53;;;6.02;100.00
12626;BME280;6378;42.684;23.372;2022-12-18T10:47:12;96352.66;;;6.03;100.00
12626;BME280;6378;42.684;23.372;2022-12-18T10:49:47;96350.38;;;5.91;100.00
12626;BME280;6378;42.684;23.372;2022-12-18T10:52:24;96342.22;;;5.78;100.00
12626;BME280;6378;42.684;23.372;2022-12-18T10:54:55;96329.69;;;5.73;100.00
12626;BME280;6378;42.684;23.372;2022-12-18T10:59:56;96351.88;;;6.02;100.00
12626;BME280;6378;42.684;23.372;2022-12-18T11:02:48;96355.00;;;6.09;100.00
12626;BME280;6378;42.684;23.372;2022-12-18T11:07:52;96354.25;;;6.28;100.00
12626;BME280;6378;42.684;23.372;2022-12-18T11:10:21;96346.25;;;6.04;100.00
12626;BME280;6378;42.684;23.372;2022-12-18T11:12:48;96347.53;;;6.06;100.00
12626;BME280;6378;42.684;23.372;2022-12-18T11:15:21;96349.09;;;6.13;100.00
12626;BME280;6378;42.684;23.372;2022-12-18T11:17:50;96348.88;;;6.09;100.00
12626;BME280;6378;42.684;23.372;2022-12-18T11:20:34;96342.44;;;6.10;100.00
12626;BME280;6378;42.684;23.372;2022-12-18T11:23:03;96348.59;;;6.11;100.00
12626;BME280;6378;42.684;23.372;2022-12-18T11:25:30;96358.34;;;5.96;100.00
12626;BME280;6378;42.684;23.372;2022-12-18T11:28:00;96358.66;;;5.95;100.00
12626;BME280;6378;42.684;23.372;2022-12-18T11:32:56;96356.25;;;5.93;100.00
12626;BME280;6378;42.684;23.372;2022-12-18T11:35:49;96355.41;;;5.98;100.00
12626;BME280;6378;42.684;23.372;2022-12-18T11:38:32;96359.84;;;6.07;100.00
12626;BME280;6378;42.684;23.372;2022-12-18T11:41:29;96358.72;;;6.14;100.00
12626;BME280;6378;42.684;23.372;2022-12-18T11:44:21;96356.84;;;6.14;100.00
12626;BME280;6378;42.684;23.372;2022-12-18T11:46:55;96364.38;;;6.07;100.00
12626;BME280;6378;42.684;23.372;2022-12-18T11:49:27;96366.50;;;6.10;100.00
12626;BME280;6378;42.684;23.372;2022-12-18T11:52:01;96357.16;;;6.07;100.00
12626;BME280;6378;42.684;23.372;2022-12-18T11:54:30;96355.66;;;6.25;100.00
12626;BME280;6378;42.684;23.372;2022-12-18T11:57:00;96362.81;;;6.30;100.00
12626;BME280;6378;42.684;23.372;2022-12-18T11:59:50;96358.19;;;6.35;100.00
12626;BME280;6378;42.684;23.372;2022-12-18T12:02:42;96339.81;;;6.29;100.00
12626;BME280;6378;42.684;23.372;2022-12-18T12:08:18;96361.75;;;6.26;100.00
12626;BME280;6378;42.684;23.372;2022-12-18T12:13:23;96358.94;;;6.17;100.00
12626;BME280;6378;42.684;23.372;2022-12-18T12:30:00;96348.81;;;6.14;100.00
12626;BME280;6378;42.684;23.372;2022-12-18T12:36:13;96364.91;;;6.09;100.00
12626;BME280;6378;42.684;23.372;2022-12-18T12:38:55;96369.38;;;5.90;100.00
12626;BME280;6378;42.684;23.372;2022-12-18T12:41:27;96373.16;;;5.84;100.00
12626;BME280;6378;42.684;23.372;2022-12-18T12:44:19;96375.03;;;5.83;100.00
12626;BME280;6378;42.684;23.372;2022-12-18T12:46:47;96368.66;;;5.79;100.00
12626;BME280;6378;42.684;23.372;2022-12-18T12:49:26;96364.09;;;5.80;100.00
12626;BME280;6378;42.684;23.372;2022-12-18T12:52:30;96355.06;;;5.76;100.00
12626;BME280;6378;42.684;23.372;2022-12-18T12:54:57;96369.94;;;5.87;100.00
12626;BME280;6378;42.684;23.372;2022-12-18T12:57:48;96376.03;;;6.16;100.00
12626;BME280;6378;42.684;23.372;2022-12-18T13:00:18;96378.28;;;6.09;100.00
12626;BME280;6378;42.684;23.372;2022-12-18T13:05:30;96382.50;;;6.15;100.00
12626;BME280;6378;42.684;23.372;2022-12-18T13:10:30;96402.09;;;7.14;100.00
12626;BME280;6378;42.684;23.372;2022-12-18T13:15:45;96398.22;;;6.40;100.00
12626;BME280;6378;42.684;23.372;2022-12-18T13:18:15;96393.97;;;6.39;100.00
12626;BME280;6378;42.684;23.372;2022-12-18T13:23:36;96404.16;;;6.37;100.00
12626;BME280;6378;42.684;23.372;2022-12-18T13:34:23;96409.81;;;6.07;100.00
12626;BME280;6378;42.684;23.372;2022-12-18T13:36:51;96416.75;;;6.08;100.00
12626;BME280;6378;42.684;23.372;2022-12-18T13:41:44;96412.00;;;6.05;100.00
12626;BME280;6378;42.684;23.372;2022-12-18T13:44:31;96417.03;;;6.06;100.00
12626;BME280;6378;42.684;23.372;2022-12-18T13:46:58;96416.81;;;6.03;100.00
12626;BME280;6378;42.684;23.372;2022-12-18T13:49:40;96424.34;;;6.01;100.00
12626;BME280;6378;42.684;23.372;2022-12-18T13:52:18;96429.84;;;6.09;100.00
12626;BME280;6378;42.684;23.372;2022-12-18T13:54:48;96421.09;;;6.04;100.00
12626;BME280;6378;42.684;23.372;2022-12-18T13:57:32;96405.38;;;5.97;100.00
12626;BME280;6378;42.684;23.372;2022-12-18T14:00:33;96427.50;;;6.03;100.00
12626;BME280;6378;42.684;23.372;2022-12-18T14:02:58;96442.91;;;6.11;100.00
12626;BME280;6378;42.684;23.372;2022-12-18T14:05:37;96419.53;;;5.98;100.00
12626;BME280;6378;42.684;23.372;2022-12-18T14:08:10;96437.03;;;6.14;100.00
12626;BME280;6378;42.684;23.372;2022-12-18T14:10:43;96403.97;;;5.76;100.00
12626;BME280;6378;42.684;23.372;2022-12-18T14:13:13;96442.00;;;5.97;100.00
12626;BME280;6378;42.684;23.372;2022-12-18T14:15:46;96443.28;;;6.04;100.00
12626;BME280;6378;42.684;23.372;2022-12-18T14:20:49;96445.72;;;6.01;100.00
12626;BME280;6378;42.684;23.372;2022-12-18T14:26:02;96447.41;;;5.87;100.00
12626;BME280;6378;42.684;23.372;2022-12-18T14:28:29;96444.44;;;5.93;100.00
12626;BME280;6378;42.684;23.372;2022-12-18T14:30:55;96450.50;;;6.04;100.00
12626;BME280;6378;42.684;23.372;2022-12-18T14:33:26;96450.44;;;6.09;100.00
12626;BME280;6378;42.684;23.372;2022-12-18T14:35:57;96451.25;;;6.09;100.00
12626;BME280;6378;42.684;23.372;2022-12-18T14:43:25;96424.50;;;5.81;100.00
12626;BME280;6378;42.684;23.372;2022-12-18T14:45:51;96455.41;;;5.92;100.00
12626;BME280;6378;42.684;23.372;2022-12-18T14:53:37;96452.81;;;5.77;100.00
12626;BME280;6378;42.684;23.372;2022-12-18T14:56:29;96455.81;;;5.70;100.00
12626;BME280;6378;42.684;23.372;2022-12-18T14:59:00;96449.75;;;5.59;100.00
12626;BME280;6378;42.684;23.372;2022-12-18T15:01:37;96441.78;;;5.54;100.00
12626;BME280;6378;42.684;23.372;2022-12-18T15:04:18;96464.34;;;5.72;100.00